sensor_id;sensor_type;location;lat;lon;timestamp;temperature;humidity
66088;DHT22;52872;52.994;6.940;2024-02-21T00:00:24;9.90;99.90
66088;DHT22;52872;52.994;6.940;2024-02-21T00:02:52;10.00;99.90
66088;DHT22;52872;52.994;6.940;2024-02-21T00:05:19;10.00;99.90
66088;DHT22;52872;52.994;6.940;2024-02-21T00:07:48;10.00;99.90
66088;DHT22;52872;52.994;6.940;2024-02-21T00:10:15;10.00;99.90
66088;DHT22;52872;52.994;6.940;2024-02-21T00:12:46;10.00;99.90
66088;DHT22;52872;52.994;6.940;2024-02-21T00:15:13;10.00;99.90
66088;DHT22;52872;52.994;6.940;2024-02-21T00:17:44;10.00;99.90
66088;DHT22;52872;52.994;6.940;2024-02-21T00:20:11;10.10;99.90
66088;DHT22;52872;52.994;6.940;2024-02-21T00:22:40;10.10;99.90
66088;DHT22;52872;52.994;6.940;2024-02-21T00:25:07;10.10;99.90
66088;DHT22;52872;52.994;6.940;2024-02-21T00:27:36;10.10;99.90
66088;DHT22;52872;52.994;6.940;2024-02-21T00:30:04;10.10;99.90
66088;DHT22;52872;52.994;6.940;2024-02-21T00:32:34;10.10;99.90
66088;DHT22;52872;52.994;6.940;2024-02-21T00:35:01;10.10;99.90
66088;DHT22;52872;52.994;6.940;2024-02-21T00:37:29;10.10;99.90
66088;DHT22;52872;52.994;6.940;2024-02-21T00:39:56;10.10;99.90
66088;DHT22;52872;52.994;6.940;2024-02-21T00:42:24;10.10;99.90
66088;DHT22;52872;52.994;6.940;2024-02-21T00:44:52;10.10;99.90
66088;DHT22;52872;52.994;6.940;2024-02-21T00:47:20;10.10;99.90
66088;DHT22;52872;52.994;6.940;2024-02-21T00:49:52;10.10;99.90
66088;DHT22;52872;52.994;6.940;2024-02-21T00:52:22;10.10;99.90
66088;DHT22;52872;52.994;6.940;2024-02-21T00:54:51;10.00;99.90
66088;DHT22;52872;52.994;6.940;2024-02-21T00:57:21;10.00;99.90
66088;DHT22;52872;52.994;6.940;2024-02-21T00:59:49;10.00;99.90
66088;DHT22;52872;52.994;6.940;2024-02-21T01:02:16;10.00;99.90
66088;DHT22;52872;52.994;6.940;2024-02-21T01:04:43;10.00;99.90
66088;DHT22;52872;52.994;6.940;2024-02-21T01:07:10;10.00;99.90
66088;DHT22;52872;52.994;6.940;2024-02-21T01:09:38;10.00;99.90
66088;DHT22;52872;52.994;6.940;2024-02-21T01:12:08;10.00;99.90
66088;DHT22;52872;52.994;6.940;2024-02-21T01:14:35;10.00;99.90
66088;DHT22;52872;52.994;6.940;2024-02-21T01:17:02;10.00;99.90
66088;DHT22;52872;52.994;6.940;2024-02-21T01:19:30;10.00;99.90
66088;DHT22;52872;52.994;6.940;2024-02-21T01:21:57;9.90;99.90
66088;DHT22;52872;52.994;6.940;2024-02-21T01:24:25;9.80;99.90
66088;DHT22;52872;52.994;6.940;2024-02-21T01:26:52;9.80;99.90
66088;DHT22;52872;52.994;6.940;2024-02-21T01:29:22;9.70;99.90
66088;DHT22;52872;52.994;6.940;2024-02-21T01:31:49;9.70;99.90
66088;DHT22;52872;52.994;6.940;2024-02-21T01:34:18;9.70;99.90
66088;DHT22;52872;52.994;6.940;2024-02-21T01:36:45;9.70;99.90
66088;DHT22;52872;52.994;6.940;2024-02-21T01:39:14;9.70;99.90
66088;DHT22;52872;52.994;6.940;2024-02-21T01:41:41;9.80;99.90
66088;DHT22;52872;52.994;6.940;2024-02-21T01:44:08;9.80;99.90
66088;DHT22;52872;52.994;6.940;2024-02-21T01:46:36;9.70;99.90
66088;DHT22;52872;52.994;6.940;2024-02-21T01:49:04;9.80;99.90
66088;DHT22;52872;52.994;6.940;2024-02-21T01:51:33;9.80;99.90
66088;DHT22;52872;52.994;6.940;2024-02-21T01:54:00;9.80;99.90
66088;DHT22;52872;52.994;6.940;2024-02-21T01:56:28;9.80;99.90
66088;DHT22;52872;52.994;6.940;2024-02-21T01:58:56;9.80;99.90
66088;DHT22;52872;52.994;6.940;2024-02-21T02:04:37;9.80;99.90
66088;DHT22;52872;52.994;6.940;2024-02-21T02:07:06;9.60;99.90
66088;DHT22;52872;52.994;6.940;2024-02-21T02:09:34;9.50;99.90
66088;DHT22;52872;52.994;6.940;2024-02-21T02:12:02;9.40;99.90
66088;DHT22;52872;52.994;6.940;2024-02-21T02:14:29;9.30;99.90
66088;DHT22;52872;52.994;6.940;2024-02-21T02:16:57;9.20;99.90
66088;DHT22;52872;52.994;6.940;2024-02-21T02:19:24;9.20;99.90
66088;DHT22;52872;52.994;6.940;2024-02-21T02:22:02;9.10;99.90
66088;DHT22;52872;52.994;6.940;2024-02-21T02:24:33;9.10;99.90
66088;DHT22;52872;52.994;6.940;2024-02-21T02:27:01;9.00;99.90
66088;DHT22;52872;52.994;6.940;2024-02-21T02:29:32;9.00;99.90
66088;DHT22;52872;52.994;6.940;2024-02-21T02:31:59;9.00;99.90
66088;DHT22;52872;52.994;6.940;2024-02-21T02:34:27;9.00;99.90
66088;DHT22;52872;52.994;6.940;2024-02-21T02:36:54;9.00;99.90
66088;DHT22;52872;52.994;6.940;2024-02-21T02:39:21;9.00;99.90
66088;DHT22;52872;52.994;6.940;2024-02-21T02:41:48;9.00;99.90
66088;DHT22;52872;52.994;6.940;2024-02-21T02:44:17;9.00;99.90
66088;DHT22;52872;52.994;6.940;2024-02-21T02:46:44;9.00;99.90
66088;DHT22;52872;52.994;6.940;2024-02-21T02:49:11;9.00;99.90
66088;DHT22;52872;52.994;6.940;2024-02-21T02:51:42;9.00;99.90
66088;DHT22;52872;52.994;6.940;2024-02-21T02:54:12;9.00;99.90
66088;DHT22;52872;52.994;6.940;2024-02-21T02:56:40;9.00;99.90
66088;DHT22;52872;52.994;6.940;2024-02-21T02:59:07;9.00;99.90
66088;DHT22;52872;52.994;6.940;2024-02-21T03:01:35;8.90;99.90
66088;DHT22;52872;52.994;6.940;2024-02-21T03:04:02;9.00;99.90
66088;DHT22;52872;52.994;6.940;2024-02-21T03:06:30;9.00;99.90
66088;DHT22;52872;52.994;6.940;2024-02-21T03:08:57;9.00;99.90
66088;DHT22;52872;52.994;6.940;2024-02-21T03:11:24;9.00;99.90
66088;DHT22;52872;52.994;6.940;2024-02-21T03:13:56;9.00;99.90
66088;DHT22;52872;52.994;6.940;2024-02-21T03:16:24;9.00;99.90
66088;DHT22;52872;52.994;6.940;2024-02-21T03:18:51;9.10;99.90
66088;DHT22;52872;52.994;6.940;2024-02-21T03:21:19;9.00;99.90
66088;DHT22;52872;52.994;6.940;2024-02-21T03:23:46;9.10;99.90
66088;DHT22;52872;52.994;6.940;2024-02-21T03:26:13;9.10;99.90
66088;DHT22;52872;52.994;6.940;2024-02-21T03:28:44;9.10;99.90
66088;DHT22;52872;52.994;6.940;2024-02-21T03:31:15;9.10;99.90
66088;DHT22;52872;52.994;6.940;2024-02-21T03:33:42;9.10;99.90
66088;DHT22;52872;52.994;6.940;2024-02-21T03:36:14;9.10;99.90
66088;DHT22;52872;52.994;6.940;2024-02-21T03:38:44;9.10;99.90
66088;DHT22;52872;52.994;6.940;2024-02-21T03:41:12;9.10;99.90
66088;DHT22;52872;52.994;6.940;2024-02-21T03:43:39;9.10;99.90
66088;DHT22;52872;52.994;6.940;2024-02-21T03:46:07;9.10;99.90
66088;DHT22;52872;52.994;6.940;2024-02-21T03:48:34;9.10;99.90
66088;DHT22;52872;52.994;6.940;2024-02-21T03:51:03;9.10;99.90
66088;DHT22;52872;52.994;6.940;2024-02-21T03:53:30;9.20;99.90
66088;DHT22;52872;52.994;6.940;2024-02-21T03:55:57;9.20;99.90
66088;DHT22;52872;52.994;6.940;2024-02-21T03:58:33;9.20;99.90
66088;DHT22;52872;52.994;6.940;2024-02-21T04:01:01;9.10;99.90
66088;DHT22;52872;52.994;6.940;2024-02-21T04:03:29;9.10;99.90
66088;DHT22;52872;52.994;6.940;2024-02-21T04:05:56;9.10;99.90
66088;DHT22;52872;52.994;6.940;2024-02-21T04:08:24;9.20;99.90
66088;DHT22;52872;52.994;6.940;2024-02-21T04:10:51;9.20;99.90
66088;DHT22;52872;52.994;6.940;2024-02-21T04:13:19;9.20;99.90
66088;DHT22;52872;52.994;6.940;2024-02-21T04:15:47;9.10;99.90
66088;DHT22;52872;52.994;6.940;2024-02-21T04:18:14;9.10;99.90
66088;DHT22;52872;52.994;6.940;2024-02-21T04:20:41;9.10;99.90
66088;DHT22;52872;52.994;6.940;2024-02-21T04:23:09;9.10;99.90
66088;DHT22;52872;52.994;6.940;2024-02-21T04:25:36;9.10;99.90
66088;DHT22;52872;52.994;6.940;2024-02-21T04:28:04;9.10;99.90
66088;DHT22;52872;52.994;6.940;2024-02-21T04:30:33;9.10;99.90
66088;DHT22;52872;52.994;6.940;2024-02-21T04:33:00;9.10;99.90
66088;DHT22;52872;52.994;6.940;2024-02-21T04:35:27;9.10;99.90
66088;DHT22;52872;52.994;6.940;2024-02-21T04:37:55;9.10;99.90
66088;DHT22;52872;52.994;6.940;2024-02-21T04:40:22;9.10;99.90
66088;DHT22;52872;52.994;6.940;2024-02-21T04:42:51;9.10;99.90
66088;DHT22;52872;52.994;6.940;2024-02-21T04:45:18;9.10;99.90
66088;DHT22;52872;52.994;6.940;2024-02-21T04:47:45;9.10;99.90
66088;DHT22;52872;52.994;6.940;2024-02-21T04:50:12;9.10;99.90
66088;DHT22;52872;52.994;6.940;2024-02-21T04:52:40;9.10;99.90
66088;DHT22;52872;52.994;6.940;2024-02-21T04:55:08;9.10;99.90
66088;DHT22;52872;52.994;6.940;2024-02-21T04:57:35;9.10;99.90
66088;DHT22;52872;52.994;6.940;2024-02-21T05:00:02;9.00;99.90
66088;DHT22;52872;52.994;6.940;2024-02-21T05:02:30;9.10;99.90
66088;DHT22;52872;52.994;6.940;2024-02-21T05:04:58;9.10;99.90
66088;DHT22;52872;52.994;6.940;2024-02-21T05:07:25;9.10;99.90
66088;DHT22;52872;52.994;6.940;2024-02-21T05:09:52;9.10;99.90
66088;DHT22;52872;52.994;6.940;2024-02-21T05:12:19;9.10;99.90
66088;DHT22;52872;52.994;6.940;2024-02-21T05:14:48;9.10;99.90
66088;DHT22;52872;52.994;6.940;2024-02-21T05:17:15;9.10;99.90
66088;DHT22;52872;52.994;6.940;2024-02-21T05:19:42;8.90;99.90
66088;DHT22;52872;52.994;6.940;2024-02-21T05:22:09;9.10;99.90
66088;DHT22;52872;52.994;6.940;2024-02-21T05:24:39;9.10;99.90
66088;DHT22;52872;52.994;6.940;2024-02-21T05:27:06;9.20;99.90
66088;DHT22;52872;52.994;6.940;2024-02-21T05:29:33;9.10;99.90
66088;DHT22;52872;52.994;6.940;2024-02-21T05:32:01;9.10;99.90
66088;DHT22;52872;52.994;6.940;2024-02-21T05:34:29;9.10;99.90
66088;DHT22;52872;52.994;6.940;2024-02-21T05:36:56;9.10;99.90
66088;DHT22;52872;52.994;6.940;2024-02-21T05:39:24;9.20;99.90
66088;DHT22;52872;52.994;6.940;2024-02-21T05:41:51;9.10;99.90
66088;DHT22;52872;52.994;6.940;2024-02-21T05:44:19;9.10;99.90
66088;DHT22;52872;52.994;6.940;2024-02-21T05:46:46;9.10;99.90
66088;DHT22;52872;52.994;6.940;2024-02-21T05:49:13;9.10;99.90
66088;DHT22;52872;52.994;6.940;2024-02-21T05:51:44;9.10;99.90
66088;DHT22;52872;52.994;6.940;2024-02-21T05:54:11;9.10;99.90
66088;DHT22;52872;52.994;6.940;2024-02-21T05:56:39;9.20;99.90
66088;DHT22;52872;52.994;6.940;2024-02-21T05:59:06;9.20;99.90
66088;DHT22;52872;52.994;6.940;2024-02-21T06:01:33;9.20;99.90
66088;DHT22;52872;52.994;6.940;2024-02-21T06:04:01;9.20;99.90
66088;DHT22;52872;52.994;6.940;2024-02-21T06:06:28;9.20;99.90
66088;DHT22;52872;52.994;6.940;2024-02-21T06:08:55;9.20;99.90
66088;DHT22;52872;52.994;6.940;2024-02-21T06:11:22;9.10;99.90
66088;DHT22;52872;52.994;6.940;2024-02-21T06:13:49;9.10;99.90
66088;DHT22;52872;52.994;6.940;2024-02-21T06:16:17;9.10;99.90
66088;DHT22;52872;52.994;6.940;2024-02-21T06:18:44;9.20;99.90
66088;DHT22;52872;52.994;6.940;2024-02-21T06:21:11;9.20;99.90
66088;DHT22;52872;52.994;6.940;2024-02-21T06:23:39;9.20;99.90
66088;DHT22;52872;52.994;6.940;2024-02-21T06:26:06;9.20;99.90
66088;DHT22;52872;52.994;6.940;2024-02-21T06:28:33;9.10;99.90
66088;DHT22;52872;52.994;6.940;2024-02-21T06:31:00;9.10;99.90
66088;DHT22;52872;52.994;6.940;2024-02-21T06:33:27;9.20;99.90
66088;DHT22;52872;52.994;6.940;2024-02-21T06:35:55;9.20;99.90
66088;DHT22;52872;52.994;6.940;2024-02-21T06:38:22;9.20;99.90
66088;DHT22;52872;52.994;6.940;2024-02-21T06:40:49;9.20;99.90
66088;DHT22;52872;52.994;6.940;2024-02-21T06:43:20;9.10;99.90
66088;DHT22;52872;52.994;6.940;2024-02-21T06:45:48;9.10;99.90
66088;DHT22;52872;52.994;6.940;2024-02-21T06:48:18;9.10;99.90
66088;DHT22;52872;52.994;6.940;2024-02-21T06:50:46;9.10;99.90
66088;DHT22;52872;52.994;6.940;2024-02-21T06:53:13;9.10;99.90
66088;DHT22;52872;52.994;6.940;2024-02-21T06:55:41;9.10;99.90
66088;DHT22;52872;52.994;6.940;2024-02-21T06:58:08;9.10;99.90
66088;DHT22;52872;52.994;6.940;2024-02-21T07:00:42;9.10;99.90
66088;DHT22;52872;52.994;6.940;2024-02-21T07:03:10;9.10;99.90
66088;DHT22;52872;52.994;6.940;2024-02-21T07:05:37;9.10;99.90
66088;DHT22;52872;52.994;6.940;2024-02-21T07:08:05;9.10;99.90
66088;DHT22;52872;52.994;6.940;2024-02-21T07:10:33;9.10;99.90
66088;DHT22;52872;52.994;6.940;2024-02-21T07:13:02;9.10;99.90
66088;DHT22;52872;52.994;6.940;2024-02-21T07:15:29;9.10;99.90
66088;DHT22;52872;52.994;6.940;2024-02-21T07:17:57;9.20;99.90
66088;DHT22;52872;52.994;6.940;2024-02-21T07:20:24;9.20;99.90
66088;DHT22;52872;52.994;6.940;2024-02-21T07:22:52;9.20;99.90
66088;DHT22;52872;52.994;6.940;2024-02-21T07:25:26;9.20;99.90
66088;DHT22;52872;52.994;6.940;2024-02-21T07:27:53;9.10;99.90
66088;DHT22;52872;52.994;6.940;2024-02-21T07:30:20;9.20;99.90
66088;DHT22;52872;52.994;6.940;2024-02-21T07:32:51;9.20;99.90
66088;DHT22;52872;52.994;6.940;2024-02-21T07:35:18;9.20;99.90
66088;DHT22;52872;52.994;6.940;2024-02-21T07:37:46;9.10;99.90
66088;DHT22;52872;52.994;6.940;2024-02-21T07:40:18;9.20;99.90
66088;DHT22;52872;52.994;6.940;2024-02-21T07:42:46;9.10;99.90
66088;DHT22;52872;52.994;6.940;2024-02-21T07:45:15;9.10;99.90
66088;DHT22;52872;52.994;6.940;2024-02-21T07:47:43;9.10;99.90
66088;DHT22;52872;52.994;6.940;2024-02-21T07:50:10;9.20;99.90
66088;DHT22;52872;52.994;6.940;2024-02-21T07:52:40;9.10;99.90
66088;DHT22;52872;52.994;6.940;2024-02-21T07:55:08;9.10;99.90
66088;DHT22;52872;52.994;6.940;2024-02-21T07:57:38;9.10;99.90
66088;DHT22;52872;52.994;6.940;2024-02-21T08:00:06;9.10;99.90
66088;DHT22;52872;52.994;6.940;2024-02-21T08:02:39;9.10;99.90
66088;DHT22;52872;52.994;6.940;2024-02-21T08:05:06;9.10;99.90
66088;DHT22;52872;52.994;6.940;2024-02-21T08:07:35;9.10;99.90
66088;DHT22;52872;52.994;6.940;2024-02-21T08:10:03;9.10;99.90
66088;DHT22;52872;52.994;6.940;2024-02-21T08:12:30;9.10;99.90
66088;DHT22;52872;52.994;6.940;2024-02-21T08:14:57;9.10;99.90
66088;DHT22;52872;52.994;6.940;2024-02-21T08:17:24;9.00;99.90
66088;DHT22;52872;52.994;6.940;2024-02-21T08:19:51;9.10;99.90
66088;DHT22;52872;52.994;6.940;2024-02-21T08:22:18;9.00;99.90
66088;DHT22;52872;52.994;6.940;2024-02-21T08:24:45;9.10;99.90
66088;DHT22;52872;52.994;6.940;2024-02-21T08:27:13;9.10;99.90
66088;DHT22;52872;52.994;6.940;2024-02-21T08:29:41;9.10;99.90
66088;DHT22;52872;52.994;6.940;2024-02-21T08:32:08;9.00;99.90
66088;DHT22;52872;52.994;6.940;2024-02-21T08:34:36;9.00;99.90
66088;DHT22;52872;52.994;6.940;2024-02-21T08:37:06;9.00;99.90
66088;DHT22;52872;52.994;6.940;2024-02-21T08:39:34;9.00;99.90
66088;DHT22;52872;52.994;6.940;2024-02-21T08:42:01;9.00;99.90
66088;DHT22;52872;52.994;6.940;2024-02-21T08:44:28;9.00;99.90
66088;DHT22;52872;52.994;6.940;2024-02-21T08:46:56;9.00;99.90
66088;DHT22;52872;52.994;6.940;2024-02-21T08:49:23;8.90;99.90
66088;DHT22;52872;52.994;6.940;2024-02-21T08:51:58;9.00;99.90
66088;DHT22;52872;52.994;6.940;2024-02-21T08:54:26;9.00;99.90
66088;DHT22;52872;52.994;6.940;2024-02-21T08:56:54;9.00;99.90
66088;DHT22;52872;52.994;6.940;2024-02-21T08:59:22;8.90;99.90
66088;DHT22;52872;52.994;6.940;2024-02-21T09:01:50;8.90;99.90
66088;DHT22;52872;52.994;6.940;2024-02-21T09:04:18;8.90;99.90
66088;DHT22;52872;52.994;6.940;2024-02-21T09:06:46;8.90;99.90
66088;DHT22;52872;52.994;6.940;2024-02-21T09:09:15;8.90;99.90
66088;DHT22;52872;52.994;6.940;2024-02-21T09:11:43;8.90;99.90
66088;DHT22;52872;52.994;6.940;2024-02-21T09:14:10;8.90;99.90
66088;DHT22;52872;52.994;6.940;2024-02-21T09:16:37;8.90;99.90
66088;DHT22;52872;52.994;6.940;2024-02-21T09:19:05;8.90;99.90
66088;DHT22;52872;52.994;6.940;2024-02-21T09:21:32;8.90;99.90
66088;DHT22;52872;52.994;6.940;2024-02-21T09:24:00;8.90;99.90
66088;DHT22;52872;52.994;6.940;2024-02-21T09:26:27;9.00;99.90
66088;DHT22;52872;52.994;6.940;2024-02-21T09:28:54;9.00;99.90
66088;DHT22;52872;52.994;6.940;2024-02-21T09:31:22;9.00;99.90
66088;DHT22;52872;52.994;6.940;2024-02-21T09:33:49;9.10;99.90
66088;DHT22;52872;52.994;6.940;2024-02-21T09:36:18;9.10;99.90
66088;DHT22;52872;52.994;6.940;2024-02-21T09:38:46;9.10;99.90
66088;DHT22;52872;52.994;6.940;2024-02-21T09:41:21;9.10;99.90
66088;DHT22;52872;52.994;6.940;2024-02-21T09:43:51;9.20;99.90
66088;DHT22;52872;52.994;6.940;2024-02-21T09:46:45;9.20;99.90
66088;DHT22;52872;52.994;6.940;2024-02-21T09:49:33;9.20;99.90
66088;DHT22;52872;52.994;6.940;2024-02-21T09:52:02;9.20;99.90
66088;DHT22;52872;52.994;6.940;2024-02-21T09:54:30;9.20;99.90
66088;DHT22;52872;52.994;6.940;2024-02-21T09:57:01;9.30;99.90
66088;DHT22;52872;52.994;6.940;2024-02-21T09:59:31;9.20;99.90
66088;DHT22;52872;52.994;6.940;2024-02-21T10:01:59;9.20;99.90
66088;DHT22;52872;52.994;6.940;2024-02-21T10:04:29;9.20;99.90
66088;DHT22;52872;52.994;6.940;2024-02-21T10:06:57;9.30;99.90
66088;DHT22;52872;52.994;6.940;2024-02-21T10:09:25;9.30;99.90
66088;DHT22;52872;52.994;6.940;2024-02-21T10:12:18;9.30;99.90
66088;DHT22;52872;52.994;6.940;2024-02-21T10:14:46;9.40;99.90
66088;DHT22;52872;52.994;6.940;2024-02-21T10:17:17;9.50;99.90
66088;DHT22;52872;52.994;6.940;2024-02-21T10:19:46;9.50;99.90
66088;DHT22;52872;52.994;6.940;2024-02-21T10:22:17;9.50;99.90
66088;DHT22;52872;52.994;6.940;2024-02-21T10:24:45;9.50;99.90
66088;DHT22;52872;52.994;6.940;2024-02-21T10:27:12;9.60;99.90
66088;DHT22;52872;52.994;6.940;2024-02-21T10:29:40;9.60;99.90
66088;DHT22;52872;52.994;6.940;2024-02-21T10:32:13;9.60;99.90
66088;DHT22;52872;52.994;6.940;2024-02-21T10:34:41;9.60;99.90
66088;DHT22;52872;52.994;6.940;2024-02-21T10:37:11;9.60;99.90
66088;DHT22;52872;52.994;6.940;2024-02-21T10:39:41;9.50;99.90
66088;DHT22;52872;52.994;6.940;2024-02-21T10:42:11;9.50;99.90
66088;DHT22;52872;52.994;6.940;2024-02-21T10:44:40;9.50;99.90
66088;DHT22;52872;52.994;6.940;2024-02-21T10:47:10;9.50;99.90
66088;DHT22;52872;52.994;6.940;2024-02-21T10:49:39;9.50;99.90
66088;DHT22;52872;52.994;6.940;2024-02-21T10:52:18;9.60;99.90
66088;DHT22;52872;52.994;6.940;2024-02-21T10:54:55;9.60;99.90
66088;DHT22;52872;52.994;6.940;2024-02-21T10:57:26;9.70;99.90
66088;DHT22;52872;52.994;6.940;2024-02-21T10:59:59;9.80;99.90
66088;DHT22;52872;52.994;6.940;2024-02-21T11:02:27;9.80;99.90
66088;DHT22;52872;52.994;6.940;2024-02-21T11:04:58;9.70;99.90
66088;DHT22;52872;52.994;6.940;2024-02-21T11:07:26;9.70;99.90
66088;DHT22;52872;52.994;6.940;2024-02-21T11:09:54;9.70;99.90
66088;DHT22;52872;52.994;6.940;2024-02-21T11:12:23;9.70;99.90
66088;DHT22;52872;52.994;6.940;2024-02-21T11:14:51;9.80;99.90
66088;DHT22;52872;52.994;6.940;2024-02-21T11:17:19;9.80;99.90
66088;DHT22;52872;52.994;6.940;2024-02-21T11:19:54;9.90;99.90
66088;DHT22;52872;52.994;6.940;2024-02-21T11:22:23;10.00;99.90
66088;DHT22;52872;52.994;6.940;2024-02-21T11:24:52;10.00;99.90
66088;DHT22;52872;52.994;6.940;2024-02-21T11:27:22;9.90;99.90
66088;DHT22;52872;52.994;6.940;2024-02-21T11:29:57;9.90;99.90
66088;DHT22;52872;52.994;6.940;2024-02-21T11:32:25;9.90;99.90
66088;DHT22;52872;52.994;6.940;2024-02-21T11:34:58;9.90;99.90
66088;DHT22;52872;52.994;6.940;2024-02-21T11:37:31;9.90;99.90
66088;DHT22;52872;52.994;6.940;2024-02-21T11:40:04;9.90;99.90
66088;DHT22;52872;52.994;6.940;2024-02-21T11:42:36;9.80;99.90
66088;DHT22;52872;52.994;6.940;2024-02-21T11:45:04;9.90;99.90
66088;DHT22;52872;52.994;6.940;2024-02-21T11:47:31;9.90;99.90
66088;DHT22;52872;52.994;6.940;2024-02-21T11:49:58;9.90;99.90
66088;DHT22;52872;52.994;6.940;2024-02-21T11:52:26;9.90;99.90
66088;DHT22;52872;52.994;6.940;2024-02-21T11:54:56;9.90;99.90
66088;DHT22;52872;52.994;6.940;2024-02-21T11:57:31;9.90;99.90
66088;DHT22;52872;52.994;6.940;2024-02-21T12:00:11;9.90;99.90
66088;DHT22;52872;52.994;6.940;2024-02-21T12:02:40;9.90;99.90
66088;DHT22;52872;52.994;6.940;2024-02-21T12:05:09;9.90;99.90
66088;DHT22;52872;52.994;6.940;2024-02-21T12:07:37;9.90;99.90
66088;DHT22;52872;52.994;6.940;2024-02-21T12:10:11;9.90;99.90
66088;DHT22;52872;52.994;6.940;2024-02-21T12:12:40;9.90;99.90
66088;DHT22;52872;52.994;6.940;2024-02-21T12:15:08;9.90;99.90
66088;DHT22;52872;52.994;6.940;2024-02-21T12:17:36;9.90;99.90
66088;DHT22;52872;52.994;6.940;2024-02-21T12:20:05;9.90;99.90
66088;DHT22;52872;52.994;6.940;2024-02-21T12:22:37;9.90;99.90
66088;DHT22;52872;52.994;6.940;2024-02-21T12:25:19;9.90;99.90
66088;DHT22;52872;52.994;6.940;2024-02-21T12:27:47;9.90;99.90
66088;DHT22;52872;52.994;6.940;2024-02-21T12:30:15;10.00;99.90
66088;DHT22;52872;52.994;6.940;2024-02-21T12:32:43;10.00;99.90
66088;DHT22;52872;52.994;6.940;2024-02-21T12:35:10;10.00;99.90
66088;DHT22;52872;52.994;6.940;2024-02-21T12:37:38;10.00;99.90
66088;DHT22;52872;52.994;6.940;2024-02-21T12:40:06;10.00;99.90
66088;DHT22;52872;52.994;6.940;2024-02-21T12:42:34;10.00;99.90
66088;DHT22;52872;52.994;6.940;2024-02-21T12:45:03;10.10;99.90
66088;DHT22;52872;52.994;6.940;2024-02-21T12:47:30;10.10;99.90
66088;DHT22;52872;52.994;6.940;2024-02-21T12:49:59;10.10;99.90
66088;DHT22;52872;52.994;6.940;2024-02-21T12:52:27;10.10;99.90
66088;DHT22;52872;52.994;6.940;2024-02-21T12:54:55;10.10;99.90
66088;DHT22;52872;52.994;6.940;2024-02-21T12:57:25;10.40;99.90
66088;DHT22;52872;52.994;6.940;2024-02-21T12:59:55;10.20;99.90
66088;DHT22;52872;52.994;6.940;2024-02-21T13:02:22;10.20;99.90
66088;DHT22;52872;52.994;6.940;2024-02-21T13:04:50;10.10;99.90
66088;DHT22;52872;52.994;6.940;2024-02-21T13:07:17;10.10;99.90
66088;DHT22;52872;52.994;6.940;2024-02-21T13:09:45;10.10;99.90
66088;DHT22;52872;52.994;6.940;2024-02-21T13:12:12;10.00;99.90
66088;DHT22;52872;52.994;6.940;2024-02-21T13:14:39;10.00;99.90
66088;DHT22;52872;52.994;6.940;2024-02-21T13:17:10;10.00;99.90
66088;DHT22;52872;52.994;6.940;2024-02-21T13:19:39;9.90;99.90
66088;DHT22;52872;52.994;6.940;2024-02-21T13:22:06;9.90;99.90
66088;DHT22;52872;52.994;6.940;2024-02-21T13:24:33;9.90;99.90
66088;DHT22;52872;52.994;6.940;2024-02-21T13:27:01;9.90;99.90
66088;DHT22;52872;52.994;6.940;2024-02-21T13:29:28;10.00;99.90
66088;DHT22;52872;52.994;6.940;2024-02-21T13:31:55;10.10;99.90
66088;DHT22;52872;52.994;6.940;2024-02-21T13:34:22;10.20;99.90
66088;DHT22;52872;52.994;6.940;2024-02-21T13:36:50;10.10;99.90
66088;DHT22;52872;52.994;6.940;2024-02-21T13:39:17;10.20;99.90
66088;DHT22;52872;52.994;6.940;2024-02-21T13:41:46;10.30;99.90
66088;DHT22;52872;52.994;6.940;2024-02-21T13:44:13;10.30;99.90
66088;DHT22;52872;52.994;6.940;2024-02-21T13:46:41;10.30;99.90
66088;DHT22;52872;52.994;6.940;2024-02-21T13:49:09;10.40;99.90
66088;DHT22;52872;52.994;6.940;2024-02-21T13:51:37;10.40;99.90
66088;DHT22;52872;52.994;6.940;2024-02-21T13:54:04;10.40;99.90
66088;DHT22;52872;52.994;6.940;2024-02-21T13:56:32;10.50;99.90
66088;DHT22;52872;52.994;6.940;2024-02-21T13:58:59;10.50;99.90
66088;DHT22;52872;52.994;6.940;2024-02-21T14:01:27;10.50;99.90
66088;DHT22;52872;52.994;6.940;2024-02-21T14:04:01;10.40;99.90
66088;DHT22;52872;52.994;6.940;2024-02-21T14:06:29;10.40;99.90
66088;DHT22;52872;52.994;6.940;2024-02-21T14:08:56;10.40;99.90
66088;DHT22;52872;52.994;6.940;2024-02-21T14:11:25;10.30;99.90
66088;DHT22;52872;52.994;6.940;2024-02-21T14:14:00;10.30;99.90
66088;DHT22;52872;52.994;6.940;2024-02-21T14:16:27;10.30;99.90
66088;DHT22;52872;52.994;6.940;2024-02-21T14:18:58;10.30;99.90
66088;DHT22;52872;52.994;6.940;2024-02-21T14:21:26;10.30;99.90
66088;DHT22;52872;52.994;6.940;2024-02-21T14:23:54;10.20;99.90
66088;DHT22;52872;52.994;6.940;2024-02-21T14:26:33;10.20;99.90
66088;DHT22;52872;52.994;6.940;2024-02-21T14:29:03;10.20;99.90
66088;DHT22;52872;52.994;6.940;2024-02-21T14:31:34;10.20;99.90
66088;DHT22;52872;52.994;6.940;2024-02-21T14:34:02;10.20;99.90
66088;DHT22;52872;52.994;6.940;2024-02-21T14:36:30;10.20;99.90
66088;DHT22;52872;52.994;6.940;2024-02-21T14:38:58;10.10;99.90
66088;DHT22;52872;52.994;6.940;2024-02-21T14:41:26;10.00;99.90
66088;DHT22;52872;52.994;6.940;2024-02-21T14:43:54;10.00;99.90
66088;DHT22;52872;52.994;6.940;2024-02-21T14:46:24;10.00;99.90
66088;DHT22;52872;52.994;6.940;2024-02-21T14:48:52;10.00;99.90
66088;DHT22;52872;52.994;6.940;2024-02-21T14:51:20;10.00;99.90
66088;DHT22;52872;52.994;6.940;2024-02-21T14:53:48;10.00;99.90
66088;DHT22;52872;52.994;6.940;2024-02-21T14:56:16;10.00;99.90
66088;DHT22;52872;52.994;6.940;2024-02-21T14:58:44;10.00;99.90
66088;DHT22;52872;52.994;6.940;2024-02-21T15:01:15;10.00;99.90
66088;DHT22;52872;52.994;6.940;2024-02-21T15:03:42;10.60;99.90
66088;DHT22;52872;52.994;6.940;2024-02-21T15:06:12;10.00;99.90
66088;DHT22;52872;52.994;6.940;2024-02-21T15:08:39;10.00;99.90
66088;DHT22;52872;52.994;6.940;2024-02-21T15:11:06;10.00;99.90
66088;DHT22;52872;52.994;6.940;2024-02-21T15:13:34;10.00;99.90
66088;DHT22;52872;52.994;6.940;2024-02-21T15:16:04;10.00;99.90
66088;DHT22;52872;52.994;6.940;2024-02-21T15:18:33;10.00;99.90
66088;DHT22;52872;52.994;6.940;2024-02-21T15:21:04;10.00;99.90
66088;DHT22;52872;52.994;6.940;2024-02-21T15:23:32;10.00;99.90
66088;DHT22;52872;52.994;6.940;2024-02-21T15:25:59;10.00;99.90
66088;DHT22;52872;52.994;6.940;2024-02-21T15:28:27;10.00;99.90
66088;DHT22;52872;52.994;6.940;2024-02-21T15:30:56;10.00;99.90
66088;DHT22;52872;52.994;6.940;2024-02-21T15:33:24;10.00;99.90
66088;DHT22;52872;52.994;6.940;2024-02-21T15:35:53;10.10;99.90
66088;DHT22;52872;52.994;6.940;2024-02-21T15:38:20;10.00;99.90
66088;DHT22;52872;52.994;6.940;2024-02-21T15:40:47;10.10;99.90
66088;DHT22;52872;52.994;6.940;2024-02-21T15:43:16;10.00;99.90
66088;DHT22;52872;52.994;6.940;2024-02-21T15:45:44;10.00;99.90
66088;DHT22;52872;52.994;6.940;2024-02-21T15:48:11;10.00;99.90
66088;DHT22;52872;52.994;6.940;2024-02-21T15:50:41;10.00;99.90
66088;DHT22;52872;52.994;6.940;2024-02-21T15:53:09;9.70;99.90